NCAR-RAP Real-Time Weather Data

Output produced by METARs form (23 April 2019  07:55 UTC)
found at http://weather.rap.ucar.edu/surface/
 
KLAS 230656Z 01010KT 10SM FEW100 22/02 A2998 RMK AO2 SLP133 T02220022